Latest Weather Observations for Grafton Airport

IDN60801

Issued at 2:35 pm EDT Tuesday 21 October 2014 (issued every 30 minutes, with the page automatically refreshed every 10 minutes)

About weather observations | Map of weather stations | Latest weather observations for NSW | Other Formats
Station Details ID: 058161 Name: GRAFTON AIRPORT AWS Lat: -29.76 Lon: 153.03 Height: 25.09 m
Data from the previous 72 hours. | See also: Recent months for locations in New South Wales
Date/Time
EDT
Temp
°C
App
Temp
°C
Dew
Point
Rel
Hum
%
Delta-T
°C
Wind Press
QNH
hPa
Press
MSL
hPa
Rain
since 9 am
mm
Dir
 
Spd
km/h
Gust
km/h
Spd
kts
Gust
kts
21/02:30pm 21.5 16.5 9.4 46 6.4 S 26 35 14 19 1028.3 1028.3 0.0
21/02:00pm 20.9 16.5 10.4 51 5.7 SSE 24 32 13 17 1028.6 1028.6 0.0
21/01:30pm 20.9 17.4 10.1 50 5.8 SE 19 24 10 13 1028.9 1028.9 0.0
21/01:00pm 21.9 18.1 9.8 46 6.5 SSE 20 32 11 17 1029.0 1029.0 0.0
21/12:30pm 21.9 18.1 9.8 46 6.5 SSW 20 28 11 15 1029.1 1029.1 0.0
21/12:00pm 22.0 18.0 9.2 44 6.8 SSW 20 35 11 19 1029.2 1029.2 0.0
21/11:30am 22.0 17.4 9.5 45 6.7 SSE 24 33 13 18 1029.5 1029.5 0.0
21/11:00am 21.0 17.2 9.9 49 5.9 S 20 30 11 16 1029.7 1029.7 0.0
21/10:30am 20.4 15.6 10.2 52 5.5 S 26 39 14 21 1029.9 1029.9 0.0
21/10:00am 19.5 15.0 10.0 54 5.1 S 24 35 13 19 1030.0 1030.0 0.0
21/09:30am 19.5 16.3 11.3 59 4.5 S 19 28 10 15 1029.9 1029.9 0.0
21/09:00am 19.0 14.8 11.1 60 4.3 SSW 24 41 13 22 1029.6 1029.6 0.0
21/08:30am 18.2 14.9 11.0 63 3.9 S 19 32 10 17 1029.4 1029.4 0.0
21/08:00am 18.3 15.6 11.8 66 3.6 S 17 26 9 14 1028.9 1028.9 0.0
21/07:30am 18.2 15.1 11.7 66 3.6 S 19 24 10 13 1028.6 1028.6 0.0
21/07:00am 17.9 16.0 11.9 68 3.3 SSW 13 20 7 11 1028.3 1028.3 0.0
21/06:30am 17.7 16.7 12.4 71 2.9 SSW 9 13 5 7 1028.0 1028.0 0.0
21/06:00am 17.8 16.5 12.5 71 2.9 SSW 11 15 6 8 1027.8 1027.8 0.0
21/05:30am 17.8 16.6 12.9 73 2.7 S 11 17 6 9 1027.6 1027.6 0.0
21/05:00am 17.8 16.3 13.1 74 2.6 S 13 17 7 9 1027.3 1027.3 0.0
21/04:30am 18.1 16.2 13.0 72 2.9 S 15 22 8 12 1027.2 1027.2 0.0
21/04:00am 18.2 17.1 13.1 72 2.9 SSW 11 17 6 9 1027.2 1027.2 0.0
21/03:30am 18.0 17.3 13.3 74 2.7 S 9 13 5 7 1027.2 1027.2 0.0
21/03:00am 18.2 18.0 13.5 74 2.7 SSW 7 9 4 5 1027.3 1027.3 0.0
21/02:30am 18.1 17.5 13.4 74 2.7 S 9 17 5 9 1027.6 1027.6 0.0
21/02:00am 18.2 17.5 13.3 73 2.8 SSW 9 13 5 7 1027.8 1027.8 0.0
21/01:30am 18.2 17.6 13.5 74 2.7 SSW 9 13 5 7 1028.0 1028.0 0.0
21/01:00am 18.2 17.3 13.7 75 2.5 SSW 11 15 6 8 1028.0 1028.0 0.0
21/12:30am 17.9 17.3 13.6 76 2.4 SSW 9 13 5 7 1028.1 1028.1 0.0
21/12:00am 17.5 17.4 13.2 76 2.4 SSW 6 7 3 4 1028.4 1028.4 0.0
 
Date/Time
EDT
Temp
°C
App
Temp
°C
Dew
Point
Rel
Hum
%
Delta-T
°C
Wind Press
QNH
hPa
Press
MSL
hPa
Rain
since 9 am
mm
Dir
 
Spd
km/h
Gust
km/h
Spd
kts
Gust
kts
20/11:30pm 17.3 17.3 12.4 73 2.7 S 4 7 2 4 1028.4 1028.4 0.0
20/11:00pm 17.6 17.6 12.3 71 2.9 S 4 7 2 4 1028.4 1028.4 0.0
20/10:30pm 18.3 16.9 12.3 68 3.3 S 11 19 6 10 1028.3 1028.3 0.0
20/10:00pm 18.6 16.9 12.6 68 3.3 S 13 17 7 9 1028.1 1028.1 0.0
20/09:30pm 18.3 17.5 11.8 66 3.6 SSW 7 13 4 7 1027.9 1027.9 0.0
20/09:00pm 18.9 18.1 11.7 63 3.9 SSW 7 11 4 6 1027.5 1027.5 0.0
20/08:30pm 19.6 17.0 11.9 61 4.3 S 17 24 9 13 1027.3 1027.3 0.0
20/08:00pm 19.6 16.6 12.1 62 4.2 S 19 24 10 13 1026.8 1026.8 0.0
20/07:30pm 19.8 16.0 12.3 62 4.2 S 24 39 13 21 1026.4 1026.4 0.0
20/07:00pm 20.3 16.1 12.3 60 4.5 S 26 41 14 22 1026.1 1026.1 0.0
20/06:30pm 20.9 16.8 12.8 60 4.6 S 26 44 14 24 1025.6 1025.6 0.0
20/06:01pm 21.7 17.4 13.1 58 4.9 SSE 28 46 15 25 1025.2 1025.2 0.0
20/06:00pm 21.8 17.1 13.2 58 4.9 SSE 30 46 16 25 1025.1 1025.1 0.0
20/05:30pm 22.1 16.0 12.9 56 5.3 SSE 37 56 20 30 1024.6 1024.5 0.0
20/05:00pm 22.5 18.0 13.8 58 5.0 SSE 30 50 16 27 1024.2 1024.1 0.0
20/04:30pm 23.1 17.4 14.1 57 5.3 SSE 37 61 20 33 1023.8 1023.7 0.0
20/04:00pm 23.9 18.7 14.6 56 5.5 SSE 35 61 19 33 1023.7 1023.6 0.0
20/03:30pm 23.9 18.1 14.0 54 5.8 SSE 37 63 20 34 1023.8 1023.7 0.0
20/03:18pm 24.8 18.9 13.7 50 6.5 S 37 61 20 33 1023.7 1023.6 0.0
20/03:01pm 25.2 20.8 12.8 46 7.2 SE 28 46 15 25 1023.6 1023.5 0.0
20/03:00pm 25.3 21.1 12.5 45 7.4 SE 26 44 14 24 1023.5 1023.4 0.0
20/02:30pm 26.6 20.5 9.9 35 9.3 SE 32 46 17 25 1023.4 1023.3 0.0
20/02:19pm 27.7 22.1 10.0 33 9.9 SE 30 50 16 27 1023.2 1023.1 0.0
20/02:00pm 28.8 23.7 10.5 32 10.3 SE 28 41 15 22 1022.9 1022.8 0.0
20/01:56pm 29.3 23.9 10.9 32 10.5 SSE 30 41 16 22 1022.7 1022.6 0.0
20/01:30pm 28.6 25.8 11.2 34 10.0 ESE 17 22 9 12 1022.6 1022.5 0.0
20/01:00pm 27.6 26.6 12.4 39 8.8 NE 9 15 5 8 1023.0 1022.9 0.0
20/12:30pm 25.8 24.5 12.6 44 7.6 N 11 19 6 10 1023.4 1023.3 0.0
20/12:00pm 25.3 24.5 12.9 46 7.2 NNE 9 17 5 9 1023.9 1023.8 0.0
20/11:30am 24.5 23.3 12.8 48 6.8 NE 11 17 6 9 1024.2 1024.1 0.0
20/11:00am 24.1 23.4 13.3 51 6.3 NNE 9 17 5 9 1024.5 1024.4 0.0
20/10:30am 23.0 22.4 13.5 55 5.5 NE 9 15 5 8 1024.5 1024.4 0.0
20/10:00am 20.9 20.4 12.1 57 4.9 NNE 6 11 3 6 1024.8 1024.7 0.0
20/09:30am 19.2 18.7 12.2 64 3.9 NNE 6 11 3 6 1024.9 1024.8 0.0
20/09:00am 17.6 17.0 11.6 68 3.3 NNE 6 11 3 6 1025.0 1025.0 0.0
20/08:30am 15.9 16.2 12.1 78 2.1 E 2 6 1 3 1025.1 1025.1 0.0
20/08:00am 13.9 13.3 11.8 87 1.1 N 6 9 3 5 1025.0 1025.0 0.0
20/07:30am 12.4 12.7 11.0 91 0.7 CALM 0 0 0 0 1025.0 1025.0 0.0
20/07:00am 10.2 10.1 9.6 96 0.3 CALM 0 0 0 0 1025.0 1025.0 0.0
20/06:30am 9.3 9.0 8.7 96 0.3 CALM 0 0 0 0 1024.6 1024.5 0.0
20/06:00am 9.4 9.1 8.8 96 0.3 CALM 0 0 0 0 1024.4 1024.3 0.0
20/05:30am 9.5 9.2 8.7 95 0.4 CALM 0 0 0 0 1024.4 1024.3 0.0
20/05:00am 9.7 9.5 8.9 95 0.4 CALM 0 0 0 0 1024.3 1024.2 0.0
20/04:34am 10.0 9.8 9.2 95 0.4 CALM 0 0 0 0 1024.4 1024.3 0.0
20/04:30am 10.2 10.1 9.4 95 0.4 CALM 0 0 0 0 1024.3 1024.2 0.0
20/04:00am 10.2 10.1 9.4 95 0.4 CALM 0 0 0 0 1024.4 1024.3 0.0
20/03:30am 10.3 10.1 9.1 92 0.6 CALM 0 0 0 0 1024.6 1024.5 0.0
20/03:00am 10.6 10.5 9.5 93 0.5 CALM 0 0 0 0 1025.0 1025.0 0.0
20/02:30am 10.8 10.7 9.6 92 0.6 CALM 0 0 0 0 1025.2 1025.2 0.0
20/02:00am 10.9 10.8 9.3 90 0.8 CALM 0 0 0 0 1025.5 1025.5 0.0
20/01:30am 11.5 11.5 9.8 89 0.9 CALM 0 0 0 0 1025.8 1025.8 0.0
20/01:00am 11.9 12.0 10.1 89 0.9 CALM 0 0 0 0 1026.3 1026.3 0.0
20/12:30am 12.1 12.2 10.0 87 1.1 CALM 0 0 0 0 1026.6 1026.6 0.0
20/12:00am 12.5 12.6 10.2 86 1.2 CALM 0 0 0 0 1026.9 1026.9 0.0
 
Date/Time
EDT
Temp
°C
App
Temp
°C
Dew
Point
Rel
Hum
%
Delta-T
°C
Wind Press
QNH
hPa
Press
MSL
hPa
Rain
since 9 am
mm
Dir
 
Spd
km/h
Gust
km/h
Spd
kts
Gust
kts
19/11:30pm 12.9 13.1 10.6 86 1.2 CALM 0 0 0 0 1027.1 1027.1 0.0
19/11:00pm 12.8 13.0 10.5 86 1.2 CALM 0 9 0 5 1027.0 1027.0 0.0
19/10:30pm 13.2 13.4 10.4 83 1.5 CALM 0 0 0 0 1027.0 1027.0 0.0
19/10:00pm 14.1 14.3 10.7 80 1.8 CALM 0 6 0 3 1026.9 1026.9 0.0
19/09:30pm 14.7 14.6 10.9 78 2.0 S 2 9 1 5 1026.7 1026.7 0.0
19/09:00pm 15.3 14.4 10.7 74 2.4 SSW 6 7 3 4 1026.4 1026.4 0.0
19/08:30pm 16.0 16.2 10.5 70 2.9 CALM 0 0 0 0 1026.1 1026.1 0.0
19/08:00pm 17.7 17.9 10.6 63 3.8 CALM 0 0 0 0 1025.7 1025.7 0.0
19/07:30pm 18.1 16.6 10.5 61 4.1 ENE 9 11 5 6 1025.4 1025.4 0.0
19/07:00pm 18.8 16.9 10.4 58 4.5 ENE 11 17 6 9 1025.1 1025.1 0.0
19/06:30pm 20.0 17.6 10.1 53 5.3 E 13 20 7 11 1024.8 1024.7 0.0
19/06:00pm 21.0 18.1 9.6 48 6.1 E 15 20 8 11 1024.3 1024.2 0.0
19/05:30pm 21.8 18.5 9.7 46 6.5 E 17 24 9 13 1024.0 1023.9 0.0
19/05:00pm 22.0 18.1 9.5 45 6.7 E 20 30 11 16 1023.9 1023.8 0.0
19/04:30pm 23.4 20.4 10.5 44 7.1 E 17 24 9 13 1023.7 1023.6 0.0
19/04:00pm 24.4 21.9 11.0 43 7.5 E 15 22 8 12 1023.6 1023.5 0.0
19/03:30pm 24.5 21.4 11.5 44 7.3 NE 19 26 10 14 1023.8 1023.7 0.0
19/03:00pm 24.4 21.5 11.0 43 7.5 ENE 17 28 9 15 1024.2 1024.1 0.0
19/02:30pm 24.7 22.5 12.0 45 7.2 NNE 15 20 8 11 1024.7 1024.6 0.0
19/02:00pm 24.0 21.9 11.0 44 7.2 ESE 13 24 7 13 1025.2 1025.2 0.0
19/01:30pm 24.5 22.5 11.5 44 7.3 NE 13 19 7 10 1025.6 1025.6 0.0
19/01:00pm 24.4 23.3 12.0 46 7.0 E 9 19 5 10 1026.2 1026.2 0.0
19/12:30pm 22.9 20.6 10.3 45 6.9 N 13 22 7 12 1026.7 1026.7 0.0
19/12:00pm 24.6 23.1 10.5 41 7.8 N 9 17 5 9 1027.1 1027.1 0.0
19/11:30am 23.1 23.1 11.2 47 6.6 SSE 2 7 1 4 1027.5 1027.5 0.0
19/11:00am 21.6 20.3 10.1 48 6.2 S 7 11 4 6 1028.0 1028.0 0.0
19/10:30am 21.2 21.6 11.2 53 5.5 CALM 0 0 0 0 1028.2 1028.2 0.0
19/10:00am 20.1 19.1 11.1 56 4.9 WSW 7 11 4 6 1028.6 1028.6 0.0
19/09:30am 20.7 19.7 11.1 54 5.3 N 7 11 4 6 1028.6 1028.6 0.0
19/09:00am 20.1 19.0 10.8 55 5.0 SSE 7 13 4 7 1028.5 1028.5 0.0
19/08:30am 18.6 17.0 11.7 64 3.8 SSW 11 15 6 8 1028.6 1028.6 0.0
19/08:00am 17.9 17.1 11.7 67 3.4 SW 7 13 4 7 1028.3 1028.3 0.0
19/07:30am 16.3 16.1 11.7 74 2.5 SSW 4 9 2 5 1028.0 1028.0 0.0
19/07:00am 14.1 14.7 11.8 86 1.2 CALM 0 0 0 0 1027.8 1027.8 0.0
19/06:30am 13.5 13.8 10.9 84 1.4 CALM 0 0 0 0 1027.5 1027.5 0.0
19/06:00am 13.9 14.1 10.5 80 1.8 CALM 0 0 0 0 1027.2 1027.2 0.0
19/05:30am 14.8 15.1 11.0 78 2.0 CALM 0 0 0 0 1026.9 1026.9 0.0
19/05:00am 15.0 14.2 11.2 78 2.0 SW 6 6 3 3 1026.9 1026.9 0.0
19/04:30am 15.3 14.6 11.3 77 2.1 SSW 6 7 3 4 1026.8 1026.8 0.0
19/04:00am 15.7 15.0 11.5 76 2.3 SW 6 9 3 5 1026.8 1026.8 0.0
19/03:30am 16.0 15.3 11.4 74 2.5 SSW 6 7 3 4 1026.9 1026.9 0.0
19/03:00am 16.4 16.1 11.3 72 2.7 SSW 4 6 2 3 1027.0 1027.0 0.0
19/02:30am 16.5 15.8 11.4 72 2.8 S 6 7 3 4 1027.2 1027.2 0.0
19/02:00am 16.3 16.7 11.2 72 2.7 CALM 0 6 0 3 1027.5 1027.5 0.0
19/01:30am 16.9 17.3 11.4 70 3.0 CALM 0 0 0 0 1027.7 1027.7 0.0
19/01:00am 17.0 16.3 11.5 70 3.0 SSW 6 7 3 4 1028.1 1028.1 0.0
19/12:30am 16.9 16.2 11.4 70 3.0 SSW 6 7 3 4 1028.2 1028.2 0.0
19/12:00am 17.2 16.4 11.2 68 3.2 SSW 6 9 3 5 1028.4 1028.4 0.0
 
Date/Time
EDT
Temp
°C
App
Temp
°C
Dew
Point
Rel
Hum
%
Delta-T
°C
Wind Press
QNH
hPa
Press
MSL
hPa
Rain
since 9 am
mm
Dir
 
Spd
km/h
Gust
km/h
Spd
kts
Gust
kts
18/11:30pm 17.3 17.0 11.3 68 3.3 SSW 4 7 2 4 1028.5 1028.5 0.0
18/11:00pm 17.4 16.6 11.0 66 3.4 SSW 6 7 3 4 1028.5 1028.5 0.0
18/10:30pm 17.4 16.6 11.0 66 3.5 SSW 6 7 3 4 1028.5 1028.5 0.0
18/10:00pm 17.3 17.6 10.9 66 3.4 CALM 0 0 0 0 1028.5 1028.5 0.0
18/09:30pm 17.5 16.7 11.1 66 3.5 SSW 6 9 3 5 1028.4 1028.4 0.0
18/09:00pm 17.2 17.5 11.0 67 3.3 CALM 0 0 0 0 1028.1 1028.1 0.0
18/08:30pm 17.4 17.0 11.2 67 3.4 SSW 4 7 2 4 1027.8 1027.8 0.0
18/08:00pm 17.4 17.0 11.2 67 3.3 SSE 4 6 2 3 1027.6 1027.6 0.0
18/07:30pm 17.6 16.6 10.9 65 3.6 SSE 7 11 4 6 1027.3 1027.3 0.0
18/07:00pm 18.2 16.4 10.8 62 4.0 SSE 11 15 6 8 1026.9 1026.9 0.0
18/06:30pm 19.0 16.9 11.1 60 4.3 SSE 13 20 7 11 1026.5 1026.5 0.0
18/06:00pm 20.2 17.7 11.1 56 5.0 SE 15 24 8 13 1026.0 1026.0 0.0
18/05:30pm 20.7 17.8 11.1 54 5.3 SSE 17 24 9 13 1025.6 1025.6 0.0
18/05:00pm 20.9 17.3 10.4 51 5.7 SE 20 35 11 19 1025.5 1025.5 0.0
18/04:30pm 21.0 16.8 9.9 49 6.0 SE 22 32 12 17 1025.4 1025.4 0.0
18/04:00pm 21.5 17.1 10.3 49 6.1 SE 24 32 13 17 1025.4 1025.4 0.0
18/03:30pm 21.9 18.4 11.0 50 6.0 SE 20 30 11 16 1025.7 1025.7 0.0
18/03:00pm 21.2 17.7 11.0 52 5.6 SE 20 32 11 17 1026.0 1026.0 0.0

Other Formats:

Comma delimited format used in spreadsheet applications
http://www.bom.gov.au/fwo/IDN60801/IDN60801.95570.axf

JavaScript Object Notation format (JSON) in row-major order
http://www.bom.gov.au/fwo/IDN60801/IDN60801.95570.json